Time;durP1;ratioP1;P1;durP2;ratioP2;P2;SDS_P1;SDS_P2;PMS_P1;PMS_P2;Temp;Humidity;BMP_temperature;BMP_pressure;BME280_temperature;BME280_humidity;BME280_pressure;Samples;Min_cycle;Max_cycle;Signal;HPM_P1;HPM_P2
2021/10/04 00:00:47;;;;;;;;;13.00;12.50;;;;;18.62;47.20;98830.59;6221421;28;96987;-62
2021/10/04 00:03:51;;;;;;;;;15.00;14.00;;;;;18.47;47.47;98834.13;6215783;28;97669;-62
2021/10/04 00:06:56;;;;;;;;;13.00;12.00;;;;;18.51;47.64;98833.28;6222566;28;97432;-61
2021/10/04 00:09:59;;;;;;;;;12.00;11.00;;;;;18.50;47.29;98842.56;6213865;28;98399;-62
2021/10/04 00:13:04;;;;;;;;;14.25;13.00;;;;;18.21;48.29;98833.28;6225389;28;97020;-61
2021/10/04 00:16:08;;;;;;;;;12.00;11.20;;;;;18.17;48.20;98833.03;6216073;28;96837;-61
2021/10/04 00:19:13;;;;;;;;;12.25;11.00;;;;;18.02;48.65;98819.38;6215726;28;97422;-61
2021/10/04 00:22:17;;;;;;;;;12.00;11.00;;;;;18.05;48.50;98840.63;6220130;28;97450;-63
2021/10/04 00:25:21;;;;;;;;;11.50;10.00;;;;;18.15;48.18;98831.66;6234364;27;97996;-63
2021/10/04 00:28:25;;;;;;;;;11.00;10.00;;;;;18.16;47.91;98825.09;6229631;28;97201;-60
2021/10/04 00:31:29;;;;;;;;;9.40;9.00;;;;;18.25;48.16;98823.47;6220771;28;97526;-62
2021/10/04 00:34:32;;;;;;;;;11.00;11.00;;;;;18.40;47.88;98817.19;6222411;27;97777;-64
2021/10/04 00:37:35;;;;;;;;;13.00;12.00;;;;;18.40;47.49;98822.63;6233308;28;96859;-63
2021/10/04 00:40:38;;;;;;;;;13.80;11.00;;;;;18.57;47.35;98826.75;6218661;28;96668;-63
2021/10/04 00:43:43;;;;;;;;;11.00;9.00;;;;;18.57;47.03;98823.19;6226803;28;96797;-61
2021/10/04 00:46:48;;;;;;;;;10.00;9.80;;;;;18.66;46.99;98818.00;6229239;28;97565;-62
2021/10/04 00:49:51;;;;;;;;;11.00;10.60;;;;;18.67;46.96;98819.66;6226762;28;97360;-61
2021/10/04 00:52:55;;;;;;;;;11.50;11.00;;;;;18.75;46.49;98808.97;6235140;28;96704;-60
2021/10/04 00:55:58;;;;;;;;;12.00;11.00;;;;;18.78;46.66;98815.78;6238111;28;96882;-62
2021/10/04 00:59:03;;;;;;;;;12.00;10.00;;;;;18.80;46.67;98808.16;6233904;28;96804;-63
2021/10/04 01:02:07;;;;;;;;;10.25;10.00;;;;;18.96;46.26;98816.00;6235673;27;96434;-60
2021/10/04 01:05:11;;;;;;;;;12.00;11.40;;;;;18.95;46.31;98799.91;6230767;28;97186;-64
2021/10/04 01:08:14;;;;;;;;;9.40;9.00;;;;;19.07;46.11;98805.03;6234372;28;97502;-62
2021/10/04 01:11:18;;;;;;;;;10.00;9.00;;;;;19.09;46.05;98814.63;6236257;28;98029;-61
2021/10/04 01:14:23;;;;;;;;;13.00;11.00;;;;;19.00;46.16;98808.09;6223084;28;97154;-61
2021/10/04 01:17:26;;;;;;;;;12.00;10.40;;;;;19.04;46.17;98811.91;6226360;28;97078;-60
2021/10/04 01:20:31;;;;;;;;;10.00;10.00;;;;;19.10;45.74;98813.53;6226945;28;96703;-61
2021/10/04 01:23:35;;;;;;;;;10.00;10.00;;;;;19.16;45.45;98808.84;6229694;28;96740;-64
2021/10/04 01:26:38;;;;;;;;;11.50;10.50;;;;;19.18;45.77;98814.84;6225450;28;96778;-60
2021/10/04 01:29:42;;;;;;;;;12.00;10.00;;;;;18.96;45.80;98809.75;6226222;27;98118;-59
2021/10/04 01:32:46;;;;;;;;;10.00;10.00;;;;;19.00;45.58;98814.38;6230761;28;97078;-63
2021/10/04 01:35:50;;;;;;;;;10.50;10.00;;;;;19.06;45.61;98808.91;6227718;28;96639;-60
2021/10/04 01:38:56;;;;;;;;;11.50;10.50;;;;;19.11;45.59;98825.28;6207570;28;96672;-62
2021/10/04 01:42:00;;;;;;;;;11.40;11.40;;;;;19.08;45.63;98812.16;6223605;28;96660;-60
2021/10/04 01:45:04;;;;;;;;;10.40;10.40;;;;;19.13;45.45;98810.22;6225028;27;97074;-62
2021/10/04 01:48:08;;;;;;;;;10.75;10.00;;;;;19.16;45.64;98817.03;6229221;28;99347;-60
2021/10/04 01:51:14;;;;;;;;;9.00;8.00;;;;;19.13;46.00;98814.88;6234959;28;96638;-60
2021/10/04 01:54:17;;;;;;;;;9.80;9.20;;;;;19.07;46.01;98810.50;6229469;28;97461;-62
2021/10/04 01:57:20;;;;;;;;;11.00;9.00;;;;;18.91;46.51;98794.16;6236276;28;97437;-60
2021/10/04 02:00:24;;;;;;;;;11.60;11.00;;;;;18.89;46.69;98803.75;6232557;28;97336;-61
2021/10/04 02:03:31;;;;;;;;;14.50;13.50;;;;;18.71;46.87;98810.63;6229372;27;97439;-62
2021/10/04 02:06:35;;;;;;;;;14.60;11.80;;;;;18.60;47.13;98812.56;6228937;28;96957;-63
2021/10/04 02:09:38;;;;;;;;;15.00;14.00;;;;;18.46;47.37;98805.16;6235964;28;97133;-63
2021/10/04 02:12:43;;;;;;;;;14.80;13.80;;;;;18.30;47.63;98807.09;6234665;27;96732;-63
2021/10/04 02:15:46;;;;;;;;;13.75;13.00;;;;;18.19;47.85;98808.19;6232370;28;97526;-61
2021/10/04 02:18:49;;;;;;;;;17.00;16.00;;;;;18.11;48.06;98808.72;6221084;28;96694;-62
2021/10/04 02:21:55;;;;;;;;;14.40;13.40;;;;;18.00;48.27;98807.91;6211704;28;97007;-61
2021/10/04 02:24:58;;;;;;;;;16.00;16.00;;;;;17.89;48.41;98819.06;6223739;28;96986;-62
2021/10/04 02:28:01;;;;;;;;;14.25;13.75;;;;;17.70;48.92;98805.13;6217632;28;97551;-62
2021/10/04 02:31:07;;;;;;;;;17.00;16.00;;;;;17.66;48.86;98814.94;6234344;28;97257;-62
2021/10/04 02:34:11;;;;;;;;;14.00;14.00;;;;;17.63;48.94;98801.84;6226074;28;97702;-62
2021/10/04 02:37:15;;;;;;;;;15.00;12.60;;;;;17.57;49.33;98808.34;6222378;28;99498;-62
2021/10/04 02:40:19;;;;;;;;;15.00;14.40;;;;;17.48;49.39;98810.78;6231329;28;97691;-63
2021/10/04 02:43:22;;;;;;;;;16.00;15.00;;;;;17.43;49.57;98804.50;6238234;28;97480;-61
2021/10/04 02:46:26;;;;;;;;;19.00;17.00;;;;;17.38;49.51;98807.19;6238488;28;96871;-62
2021/10/04 02:49:29;;;;;;;;;16.20;16.00;;;;;17.31;49.60;98811.00;6217316;28;97401;-60
2021/10/04 02:52:34;;;;;;;;;16.00;15.00;;;;;17.28;49.78;98810.72;6230257;28;97547;-62
2021/10/04 02:55:37;;;;;;;;;14.00;13.00;;;;;17.33;49.60;98813.44;6232587;28;96735;-60
2021/10/04 02:58:40;;;;;;;;;13.80;11.80;;;;;17.34;49.72;98809.66;6232083;28;96677;-61
2021/10/04 03:01:43;;;;;;;;;15.20;13.00;;;;;17.41;49.72;98817.56;6224768;27;97972;-62
2021/10/04 03:04:47;;;;;;;;;16.00;15.00;;;;;17.45;49.56;98807.75;6240833;28;96994;-63
2021/10/04 03:07:51;;;;;;;;;11.00;11.00;;;;;17.55;49.39;98818.69;6233354;27;96562;-61
2021/10/04 03:10:55;;;;;;;;;11.00;10.00;;;;;17.67;49.39;98814.69;6211410;28;97770;-60
2021/10/04 03:13:58;;;;;;;;;11.00;10.50;;;;;17.78;49.07;98807.34;6225923;28;96848;-63
2021/10/04 03:17:01;;;;;;;;;11.60;11.00;;;;;17.84;49.08;98800.00;6225971;28;96790;-61
2021/10/04 03:20:06;;;;;;;;;13.00;11.75;;;;;17.91;48.85;98811.44;6223454;28;97506;-62
2021/10/04 03:23:11;;;;;;;;;11.20;10.60;;;;;18.02;48.49;98807.63;6236509;28;97410;-62
2021/10/04 03:26:15;;;;;;;;;12.50;11.50;;;;;18.06;48.40;98803.28;6224258;28;97604;-62
2021/10/04 03:29:18;;;;;;;;;13.00;11.00;;;;;17.99;48.63;98806.25;6223906;28;98585;-62
2021/10/04 03:32:21;;;;;;;;;12.25;11.75;;;;;18.00;48.52;98797.00;6236495;27;97544;-62
2021/10/04 03:35:25;;;;;;;;;12.80;12.40;;;;;17.97;48.60;98804.91;6237308;28;97779;-62
2021/10/04 03:38:29;;;;;;;;;12.60;11.60;;;;;17.97;48.67;98811.19;6223890;28;96581;-62
2021/10/04 03:41:33;;;;;;;;;14.00;13.00;;;;;17.97;48.73;98813.91;6239681;28;97517;-63
2021/10/04 03:44:36;;;;;;;;;15.00;14.00;;;;;17.98;48.48;98817.47;6238082;27;96437;-61
2021/10/04 03:47:40;;;;;;;;;12.00;12.00;;;;;17.89;48.50;98808.97;6217522;27;98046;-63
2021/10/04 03:50:44;;;;;;;;;12.40;11.40;;;;;17.88;48.80;98818.28;6218001;28;97912;-64
2021/10/04 03:53:49;;;;;;;;;16.00;15.00;;;;;17.83;48.87;98820.97;6216792;28;97433;-62
2021/10/04 03:56:52;;;;;;;;;15.00;13.20;;;;;17.72;49.32;98814.69;6226180;28;97443;-61
2021/10/04 03:59:55;;;;;;;;;14.00;13.00;;;;;17.60;49.49;98822.28;6234349;28;96669;-61
2021/10/04 04:02:58;;;;;;;;;18.00;16.00;;;;;17.53;49.88;98816.25;6204524;28;98630;-62
2021/10/04 04:06:02;;;;;;;;;14.00;13.50;;;;;17.44;49.82;98817.03;6222597;28;97542;-64
2021/10/04 04:09:06;;;;;;;;;16.00;14.00;;;;;17.32;49.90;98814.53;6217389;28;96752;-64
2021/10/04 04:12:10;;;;;;;;;17.60;17.00;;;;;17.23;49.69;98821.59;6227590;28;97002;-62
2021/10/04 04:15:14;;;;;;;;;18.00;17.00;;;;;17.16;49.73;98826.44;6221929;28;96797;-61
2021/10/04 04:18:18;;;;;;;;;15.60;15.00;;;;;17.05;49.90;98819.34;6223468;27;96596;-64
2021/10/04 04:21:22;;;;;;;;;18.00;16.50;;;;;16.94;50.03;98821.19;6223356;28;96861;-61
2021/10/04 04:24:46;;;;;;;;;19.00;17.00;;;;;16.80;50.49;98825.47;6228438;28;99627;-61
2021/10/04 04:27:50;;;;;;;;;19.00;17.00;;;;;16.69;50.69;98815.59;6208146;28;96793;-61
2021/10/04 04:30:53;;;;;;;;;17.00;16.00;;;;;16.68;50.88;98825.66;6229297;27;96887;-63
2021/10/04 04:33:56;;;;;;;;;17.80;16.80;;;;;16.63;50.90;98817.44;6229784;28;97759;-63
2021/10/04 04:37:00;;;;;;;;;20.60;18.40;;;;;16.41;50.91;98806.69;6222275;28;96777;-64
2021/10/04 04:40:06;;;;;;;;;17.00;17.00;;;;;16.53;51.14;98816.53;6224449;28;97144;-61
2021/10/04 04:43:10;;;;;;;;;17.40;16.20;;;;;16.47;51.22;98823.84;6221717;28;97383;-62
2021/10/04 04:46:13;;;;;;;;;19.00;17.00;;;;;16.45;51.41;98824.13;6214926;27;97219;-63
2021/10/04 04:49:17;;;;;;;;;18.75;18.00;;;;;16.49;51.33;98818.97;6217362;27;96635;-62
2021/10/04 04:52:20;;;;;;;;;17.00;16.00;;;;;16.51;51.34;98829.59;6215817;28;97833;-63
2021/10/04 04:55:25;;;;;;;;;16.60;14.80;;;;;16.47;51.47;98824.66;6228657;27;96935;-61
2021/10/04 04:58:28;;;;;;;;;19.00;16.75;;;;;16.40;51.52;98826.78;6223211;28;98177;-62
2021/10/04 05:01:32;;;;;;;;;17.60;15.60;;;;;16.45;51.43;98834.19;6216077;28;97147;-64
2021/10/04 05:04:35;;;;;;;;;17.00;15.00;;;;;16.45;51.49;98832.28;6224331;28;97891;-64
2021/10/04 05:07:38;;;;;;;;;18.25;17.00;;;;;16.48;51.51;98833.66;6220852;28;97457;-62
2021/10/04 05:10:43;;;;;;;;;20.40;19.40;;;;;16.53;51.49;98830.97;6226659;28;97030;-63
2021/10/04 05:13:47;;;;;;;;;16.00;15.80;;;;;16.60;51.37;98830.78;6217232;28;98612;-60
2021/10/04 05:16:50;;;;;;;;;22.00;20.00;;;;;16.63;51.46;98836.50;6228757;28;97494;-61
2021/10/04 05:19:54;;;;;;;;;20.00;19.00;;;;;16.67;51.38;98836.78;6217156;28;97493;-60
2021/10/04 05:22:57;;;;;;;;;21.00;20.25;;;;;16.79;51.14;98840.97;6219656;28;97508;-61
2021/10/04 05:26:02;;;;;;;;;22.20;19.00;;;;;16.88;51.11;98844.84;6217009;27;97885;-63
2021/10/04 05:29:05;;;;;;;;;22.00;20.75;;;;;17.01;50.95;98840.00;6230473;28;97513;-62
2021/10/04 05:32:09;;;;;;;;;19.75;18.75;;;;;17.03;50.78;98829.66;6211905;27;98089;-61
2021/10/04 05:35:13;;;;;;;;;22.50;21.00;;;;;17.26;50.55;98849.13;6204366;28;97714;-60
2021/10/04 05:38:16;;;;;;;;;24.50;22.25;;;;;17.38;50.36;98848.06;6229664;28;97022;-62
2021/10/04 05:41:21;;;;;;;;;24.60;23.60;;;;;17.52;50.40;98841.03;6230536;28;97526;-61
2021/10/04 05:44:25;;;;;;;;;23.20;21.20;;;;;17.67;49.92;98843.84;6221994;28;97400;-61
2021/10/04 05:47:28;;;;;;;;;26.20;23.00;;;;;17.85;49.49;98837.88;6231973;28;96979;-61
2021/10/04 05:50:31;;;;;;;;;21.75;20.75;;;;;18.00;49.27;98853.44;6231162;28;97403;-63
2021/10/04 05:53:34;;;;;;;;;24.00;23.00;;;;;18.19;49.03;98844.47;6219479;28;98079;-61
2021/10/04 05:56:40;;;;;;;;;25.60;23.40;;;;;18.35;48.77;98849.94;6225284;27;96698;-62
2021/10/04 05:59:43;;;;;;;;;23.50;22.00;;;;;18.56;48.31;98851.63;6220795;27;97007;-63
2021/10/04 06:02:46;;;;;;;;;21.00;20.60;;;;;18.75;47.73;98849.13;6227451;28;97589;-63
2021/10/04 06:05:50;;;;;;;;;21.00;20.00;;;;;18.94;47.19;98852.91;6230056;28;96596;-63
2021/10/04 06:08:53;;;;;;;;;23.00;20.80;;;;;19.16;46.66;98861.59;6225547;28;97440;-64
2021/10/04 06:11:58;;;;;;;;;21.60;20.00;;;;;19.30;46.51;98853.63;6229410;28;97451;-62
2021/10/04 06:15:02;;;;;;;;;21.60;19.20;;;;;19.61;46.24;98868.00;6226283;28;96940;-64
2021/10/04 06:18:05;;;;;;;;;26.25;23.00;;;;;19.89;45.39;98859.91;6232324;28;97865;-62
2021/10/04 06:21:09;;;;;;;;;24.40;23.40;;;;;20.24;44.69;98864.34;6235225;28;96463;-62
2021/10/04 06:24:12;;;;;;;;;23.00;21.25;;;;;20.71;43.82;98860.16;6234078;27;97425;-62
2021/10/04 06:27:17;;;;;;;;;24.00;22.00;;;;;21.21;42.49;98867.06;6235985;28;96571;-61
2021/10/04 06:30:20;;;;;;;;;23.60;22.00;;;;;21.75;41.87;98866.66;6235678;28;97552;-62
2021/10/04 06:33:23;;;;;;;;;23.00;21.20;;;;;22.29;39.57;98868.09;6235290;28;96635;-61
2021/10/04 06:36:26;;;;;;;;;23.40;20.80;;;;;23.00;38.75;98859.50;6213016;28;98121;-62
2021/10/04 06:39:30;;;;;;;;;21.80;19.00;;;;;24.59;36.12;98873.16;6210287;28;97530;-62
2021/10/04 06:42:34;;;;;;;;;19.40;18.60;;;;;26.36;33.07;98870.09;6209633;28;97613;-61
2021/10/04 06:45:38;;;;;;;;;23.60;19.80;;;;;27.58;31.25;98873.91;6224621;28;96380;-63
2021/10/04 06:48:42;;;;;;;;;23.60;21.60;;;;;27.88;30.80;98879.44;6235141;28;97468;-63
2021/10/04 06:51:46;;;;;;;;;18.20;18.20;;;;;28.06;30.36;98885.66;6224709;27;97260;-61
2021/10/04 06:54:49;;;;;;;;;18.50;18.00;;;;;28.97;29.50;98888.38;6218359;28;97467;-63
2021/10/04 06:57:54;;;;;;;;;18.40;18.00;;;;;30.29;27.51;98885.19;6226874;28;97426;-64
2021/10/04 07:00:57;;;;;;;;;18.00;17.20;;;;;31.39;25.78;98884.34;6234810;28;97465;-64
2021/10/04 07:04:02;;;;;;;;;20.00;18.00;;;;;32.35;24.72;98883.06;6232304;27;96673;-62
2021/10/04 07:07:06;;;;;;;;;20.00;17.40;;;;;33.01;23.93;98894.00;6221255;28;96895;-62
2021/10/04 07:10:09;;;;;;;;;18.00;17.00;;;;;33.49;23.47;98896.09;6230556;28;97431;-63
2021/10/04 07:13:14;;;;;;;;;17.00;17.00;;;;;33.75;23.08;98897.34;6210273;28;97539;-64
2021/10/04 07:16:17;;;;;;;;;21.50;18.50;;;;;34.16;22.51;98890.78;6228334;28;97481;-61
2021/10/04 07:19:21;;;;;;;;;18.60;18.00;;;;;34.49;22.33;98898.47;6250409;27;96941;-62
2021/10/04 07:22:25;;;;;;;;;18.00;17.00;;;;;34.72;21.70;98904.78;6232396;28;96756;-63
2021/10/04 07:25:28;;;;;;;;;21.50;20.00;;;;;34.98;21.90;98901.09;6227141;28;97454;-60
2021/10/04 07:28:33;;;;;;;;;25.00;24.00;;;;;34.95;21.54;98899.03;6224472;27;97493;-60
2021/10/04 07:31:37;;;;;;;;;25.00;23.00;;;;;34.95;22.42;98899.03;6210067;28;97355;-62
2021/10/04 07:34:41;;;;;;;;;26.00;24.00;;;;;35.29;21.58;98907.41;6227757;28;97637;-61
2021/10/04 07:37:45;;;;;;;;;25.00;24.00;;;;;35.72;21.84;98894.63;6235448;28;96734;-61
2021/10/04 07:40:49;;;;;;;;;26.00;23.00;;;;;36.09;21.44;98902.91;6215433;28;98518;-62
2021/10/04 07:43:53;;;;;;;;;21.00;19.00;;;;;36.51;21.17;98905.19;6212993;28;97590;-61
2021/10/04 07:47:01;;;;;;;;;18.00;17.00;;;;;36.74;20.50;98900.91;6213105;28;96938;-62
2021/10/04 07:50:05;;;;;;;;;18.00;15.00;;;;;37.04;20.19;98914.66;6225815;28;97510;-62
2021/10/04 07:53:08;;;;;;;;;16.50;16.00;;;;;37.15;20.40;98903.44;6238201;27;96959;-63
2021/10/04 07:56:11;;;;;;;;;19.40;17.00;;;;;37.19;20.29;98907.84;6238476;27;96483;-65
2021/10/04 07:59:16;;;;;;;;;21.00;18.00;;;;;37.40;20.26;98909.91;6234137;27;96929;-63
2021/10/04 08:02:19;;;;;;;;;17.00;16.00;;;;;37.56;19.64;98901.91;6212153;28;96505;-61
2021/10/04 08:05:22;;;;;;;;;16.20;15.20;;;;;37.84;20.35;98906.72;6212056;28;98416;-62
2021/10/04 08:08:26;;;;;;;;;15.75;14.75;;;;;38.02;19.69;98910.34;6213580;28;96583;-60
2021/10/04 08:11:30;;;;;;;;;17.40;16.00;;;;;38.13;19.31;98901.88;6234948;28;96811;-62
2021/10/04 08:14:36;;;;;;;;;16.00;14.20;;;;;38.33;19.29;98908.69;6238616;27;96488;-63
2021/10/04 08:17:40;;;;;;;;;15.60;15.60;;;;;38.37;19.15;98901.03;6238455;28;96994;-62
2021/10/04 08:20:43;;;;;;;;;16.00;15.40;;;;;38.45;19.49;98896.22;6222622;27;97468;-62
2021/10/04 08:23:47;;;;;;;;;15.00;14.00;;;;;38.32;19.27;98904.25;6213004;28;97457;-61
2021/10/04 08:26:50;;;;;;;;;15.50;15.00;;;;;38.37;19.31;98900.22;6213320;28;97134;-63
2021/10/04 08:29:55;;;;;;;;;14.00;13.25;;;;;38.55;19.21;98887.72;6214048;28;96614;-63
2021/10/04 08:32:58;;;;;;;;;15.00;13.00;;;;;38.78;19.21;98897.69;6237829;28;97011;-63
2021/10/04 08:36:04;;;;;;;;;14.00;13.00;;;;;38.99;18.66;98895.59;6236095;28;96494;-64
2021/10/04 08:39:08;;;;;;;;;19.00;17.00;;;;;39.06;18.83;98889.09;6235749;27;98630;-64
2021/10/04 08:42:11;;;;;;;;;15.00;14.00;;;;;39.32;19.12;98897.00;6212710;28;96454;-61
2021/10/04 08:45:16;;;;;;;;;15.00;14.00;;;;;39.30;18.68;98885.31;6213587;28;97492;-64
2021/10/04 08:48:21;;;;;;;;;15.00;14.40;;;;;39.47;18.58;98889.25;6212603;28;96491;-63
2021/10/04 08:51:25;;;;;;;;;14.40;12.40;;;;;39.61;18.69;98893.97;6215035;28;97538;-61
2021/10/04 08:54:29;;;;;;;;;13.40;13.00;;;;;39.67;18.57;98898.75;6213168;28;97559;-61
2021/10/04 08:57:33;;;;;;;;;14.00;14.00;;;;;39.73;18.87;98896.28;6211948;28;96690;-63
2021/10/04 09:00:39;;;;;;;;;17.00;15.00;;;;;39.88;18.27;98899.81;6222584;28;97518;-63
2021/10/04 09:03:45;;;;;;;;;14.40;14.00;;;;;39.90;18.60;98892.53;6235897;28;97460;-63
2021/10/04 09:06:49;;;;;;;;;12.60;11.60;;;;;40.06;18.59;98889.16;6238587;27;97147;-63
2021/10/04 09:09:54;;;;;;;;;16.60;14.00;;;;;40.32;18.58;98893.34;6235726;28;97921;-63
2021/10/04 09:12:59;;;;;;;;;14.00;14.00;;;;;40.16;18.79;98883.38;6237849;27;98014;-63
2021/10/04 09:16:04;;;;;;;;;16.00;13.00;;;;;40.20;19.13;98881.34;6238297;27;96446;-63
2021/10/04 09:19:18;;;;;;;;;14.00;12.00;;;;;40.43;19.11;98877.06;6238221;27;97488;-63
2021/10/04 09:22:22;;;;;;;;;13.00;12.00;;;;;40.47;18.54;98880.63;6212893;28;96904;-63
2021/10/04 09:25:25;;;;;;;;;14.60;13.00;;;;;40.58;18.25;98882.09;6213059;28;96546;-61
2021/10/04 09:28:30;;;;;;;;;14.00;13.00;;;;;40.74;18.21;98883.56;6213300;28;96513;-64
2021/10/04 09:31:36;;;;;;;;;14.00;13.00;;;;;40.96;18.44;98882.84;6214075;28;96396;-64
2021/10/04 09:34:42;;;;;;;;;14.00;14.00;;;;;40.86;17.48;98878.13;6213164;28;96703;-64
2021/10/04 09:37:48;;;;;;;;;15.00;13.40;;;;;40.92;18.46;98882.09;6213287;28;97429;-63
2021/10/04 09:40:53;;;;;;;;;14.00;12.00;;;;;40.78;18.49;98887.13;6212581;28;96466;-63
2021/10/04 09:44:02;;;;;;;;;14.00;14.00;;;;;40.87;18.17;98884.59;6212913;28;98186;-63
2021/10/04 09:47:12;;;;;;;;;14.00;12.00;;;;;40.90;18.20;98886.59;6213061;28;96530;-63
2021/10/04 09:50:17;;;;;;;;;13.20;12.20;;;;;40.97;18.19;98878.78;6234200;27;97458;-62
2021/10/04 09:53:20;;;;;;;;;14.00;13.00;;;;;41.00;18.28;98883.59;6237617;27;96813;-62
2021/10/04 09:56:27;;;;;;;;;14.80;13.00;;;;;41.26;18.31;98882.03;6237689;28;98089;-62
2021/10/04 09:59:32;;;;;;;;;12.50;11.50;;;;;41.31;18.08;98869.41;6220819;28;99497;-62
2021/10/04 10:02:37;;;;;;;;;13.60;13.00;;;;;41.34;18.51;98863.72;6212650;28;96883;-65
2021/10/04 10:05:43;;;;;;;;;15.50;13.50;;;;;41.29;17.64;98874.72;6212692;28;96514;-62
2021/10/04 10:08:47;;;;;;;;;12.50;12.50;;;;;41.26;17.99;98867.88;6220613;28;96904;-62
2021/10/04 10:11:50;;;;;;;;;15.00;14.50;;;;;41.13;18.48;98871.72;6236584;28;96596;-61
2021/10/04 10:14:54;;;;;;;;;14.00;14.00;;;;;41.09;18.83;98869.75;6238567;27;96499;-64
2021/10/04 10:18:07;;;;;;;;;14.00;13.80;;;;;41.19;19.05;98870.84;6236512;27;96524;-62
2021/10/04 10:21:16;;;;;;;;;16.00;14.50;;;;;41.31;18.33;98863.75;6212762;28;97093;-63
2021/10/04 10:24:31;;;;;;;;;14.00;14.00;;;;;41.45;18.62;98866.38;6212199;28;96372;-64
2021/10/04 10:27:41;;;;;;;;;13.00;12.60;;;;;41.69;17.76;98872.88;6212271;28;97574;-64
2021/10/04 10:30:51;;;;;;;;;14.00;13.40;;;;;41.84;18.14;98871.38;6234907;28;97381;-63
2021/10/04 10:33:56;;;;;;;;;16.00;14.50;;;;;41.96;17.73;98870.78;6237296;27;96405;-63
2021/10/04 10:37:01;;;;;;;;;12.00;11.00;;;;;42.03;17.68;98867.03;6231090;28;96756;-63
2021/10/04 10:40:12;;;;;;;;;13.00;13.00;;;;;42.02;17.41;98871.91;6225046;28;97145;-62
2021/10/04 10:43:15;;;;;;;;;14.67;11.00;;;;;41.84;17.46;98868.53;6212364;28;97032;-64
2021/10/04 10:46:53;;;;;;;;;14.00;12.00;;;;;41.82;17.94;98866.16;6211972;28;96925;-63
2021/10/04 10:50:07;;;;;;;;;14.60;13.60;;;;;41.96;17.56;98859.47;6211402;28;97117;-63
2021/10/04 10:53:17;;;;;;;;;11.00;11.00;;;;;42.05;17.65;98862.53;6212213;28;96483;-63
2021/10/04 10:56:21;;;;;;;;;12.75;12.25;;;;;42.17;17.40;98859.06;6212029;28;97527;-63
2021/10/04 10:59:25;;;;;;;;;14.50;11.00;;;;;42.03;16.87;98856.47;6215356;28;96900;-63
2021/10/04 11:02:48;;;;;;;;;13.00;12.00;;;;;41.79;17.91;98867.00;6236132;27;97534;-63
2021/10/04 11:06:02;;;;;;;;;10.00;10.00;;;;;41.50;17.01;98861.03;6240137;28;97501;-61
2021/10/04 11:09:06;;;;;;;;;12.75;11.75;;;;;40.99;17.53;98850.91;6240753;28;98111;-62
2021/10/04 11:12:09;;;;;;;;;12.00;11.00;;;;;40.86;18.31;98851.91;6238363;27;96523;-62
2021/10/04 11:15:28;;;;;;;;;13.20;13.20;;;;;40.88;18.25;98844.59;6239200;28;97482;-61
2021/10/04 11:18:38;;;;;;;;;12.00;12.00;;;;;40.48;17.95;98846.31;6240871;27;96553;-62
2021/10/04 11:21:45;;;;;;;;;14.00;12.00;;;;;40.18;19.30;98835.78;6237784;28;97652;-61
2021/10/04 11:24:49;;;;;;;;;12.00;12.00;;;;;40.22;19.10;98841.41;6215576;28;97489;-62
2021/10/04 11:27:52;;;;;;;;;14.00;13.40;;;;;40.23;19.06;98842.97;6215146;28;96500;-63
2021/10/04 11:30:57;;;;;;;;;12.40;11.40;;;;;40.24;18.83;98833.28;6213921;28;99760;-62
2021/10/04 11:34:06;;;;;;;;;11.33;11.00;;;;;40.42;18.63;98839.50;6237660;28;97565;-63
2021/10/04 11:37:11;;;;;;;;;13.20;13.00;;;;;40.08;19.03;98839.47;6240758;27;97098;-62
2021/10/04 11:40:15;;;;;;;;;12.20;11.20;;;;;39.95;19.59;98829.16;6240384;27;96435;-61
2021/10/04 11:43:19;;;;;;;;;12.40;12.00;;;;;39.89;19.61;98825.97;6224086;27;97434;-63
2021/10/04 11:46:26;;;;;;;;;13.75;12.00;;;;;40.12;19.16;98822.53;6214814;28;96472;-61
2021/10/04 11:49:32;;;;;;;;;13.40;12.60;;;;;40.41;19.09;98823.81;6215512;28;96538;-63
2021/10/04 11:52:42;;;;;;;;;15.75;14.00;;;;;40.61;18.62;98819.09;6225109;28;97429;-62
2021/10/04 11:55:57;;;;;;;;;12.00;11.40;;;;;40.86;18.81;98818.75;6239839;28;97535;-62
2021/10/04 11:59:01;;;;;;;;;14.00;13.00;;;;;40.93;18.61;98826.34;6238335;28;96982;-62
2021/10/04 12:02:17;;;;;;;;;11.60;10.60;;;;;40.90;18.22;98827.22;6239267;28;96464;-62
2021/10/04 12:05:22;;;;;;;;;12.00;11.00;;;;;40.79;18.88;98820.91;6240225;27;97030;-62
2021/10/04 12:08:36;;;;;;;;;10.00;10.00;;;;;40.39;18.39;98825.44;6225854;27;97047;-62
2021/10/04 12:11:49;;;;;;;;;13.00;12.75;;;;;39.94;18.91;98817.06;6214699;28;97419;-61
2021/10/04 12:14:53;;;;;;;;;10.80;10.00;;;;;39.64;19.91;98816.94;6237015;27;97168;-64
2021/10/04 12:17:56;;;;;;;;;12.00;11.00;;;;;39.53;19.24;98814.22;6239172;28;96550;-62
2021/10/04 12:21:16;;;;;;;;;13.50;11.50;;;;;39.38;20.03;98805.09;6238653;28;96572;-63
2021/10/04 12:24:23;;;;;;;;;14.00;13.00;;;;;39.36;19.37;98803.91;6216228;28;96490;-61
2021/10/04 12:27:27;;;;;;;;;12.25;12.00;;;;;39.21;19.51;98810.84;6214773;28;96922;-64
2021/10/04 12:30:46;;;;;;;;;13.50;13.00;;;;;39.09;20.32;98808.53;6212475;28;98576;-62
2021/10/04 12:33:49;;;;;;;;;15.00;13.00;;;;;39.07;19.78;98806.13;6232371;28;97095;-63
2021/10/04 12:36:56;;;;;;;;;13.00;11.00;;;;;38.86;20.85;98801.38;6238808;28;98014;-61
2021/10/04 12:40:00;;;;;;;;;14.00;13.00;;;;;38.74;20.63;98801.09;6239127;28;97173;-63
2021/10/04 12:43:06;;;;;;;;;13.00;12.00;;;;;38.54;20.95;98804.41;6232159;28;97492;-64
2021/10/04 12:46:12;;;;;;;;;13.00;13.00;;;;;38.42;21.49;98802.03;6212911;28;97484;-63
2021/10/04 12:49:19;;;;;;;;;12.00;11.20;;;;;38.25;20.56;98797.28;6213842;28;96464;-64
2021/10/04 12:52:25;;;;;;;;;14.00;13.00;;;;;38.10;21.71;98809.81;6213894;28;97156;-61
2021/10/04 12:55:29;;;;;;;;;10.75;10.75;;;;;37.96;21.41;98801.38;6212314;28;96794;-61
2021/10/04 12:58:34;;;;;;;;;12.00;12.00;;;;;37.88;21.55;98806.22;6213647;28;97648;-64
2021/10/04 13:01:49;;;;;;;;;14.00;13.00;;;;;37.79;22.12;98799.41;6213750;28;96488;-63
2021/10/04 13:04:54;;;;;;;;;13.00;12.00;;;;;37.62;21.88;98801.06;6213710;28;97673;-64
2021/10/04 13:07:57;;;;;;;;;12.20;12.00;;;;;37.21;22.18;98806.25;6213704;28;97159;-65
2021/10/04 13:11:01;;;;;;;;;13.00;12.40;;;;;36.89;22.96;98798.59;6219572;28;96784;-63
2021/10/04 13:14:06;;;;;;;;;13.50;12.00;;;;;36.71;22.99;98796.94;6229437;27;96837;-61
2021/10/04 13:17:10;;;;;;;;;14.00;12.40;;;;;36.38;22.25;98806.44;6234915;28;98856;-61
2021/10/04 13:20:14;;;;;;;;;13.40;12.40;;;;;36.22;23.29;98806.75;6235472;28;96999;-66
2021/10/04 13:23:17;;;;;;;;;13.00;11.40;;;;;36.04;23.58;98797.44;6237463;28;97626;-63
2021/10/04 13:26:24;;;;;;;;;11.00;10.00;;;;;35.83;23.62;98803.72;6237701;27;96531;-60
2021/10/04 13:29:27;;;;;;;;;12.00;10.00;;;;;35.54;24.49;98799.09;6236950;28;97288;-62
2021/10/04 13:32:30;;;;;;;;;13.00;12.00;;;;;35.13;24.62;98804.78;6236055;28;97589;-62
2021/10/04 13:35:33;;;;;;;;;11.20;10.20;;;;;34.98;24.82;98800.22;6236067;28;97462;-63
2021/10/04 13:38:38;;;;;;;;;12.80;11.20;;;;;34.82;25.32;98819.25;6235546;28;96655;-63
2021/10/04 13:41:43;;;;;;;;;13.40;12.00;;;;;34.74;25.66;98815.59;6212702;28;96761;-59
2021/10/04 13:44:46;;;;;;;;;13.60;10.60;;;;;34.56;25.44;98813.75;6212288;28;96537;-63
2021/10/04 13:47:49;;;;;;;;;12.25;11.25;;;;;34.48;25.29;98814.84;6211302;28;97546;-62
2021/10/04 13:50:53;;;;;;;;;15.00;13.00;;;;;34.47;25.37;98821.63;6212313;28;96560;-63
2021/10/04 13:53:59;;;;;;;;;13.00;12.00;;;;;34.39;25.87;98823.56;6228884;28;97417;-63
2021/10/04 13:57:04;;;;;;;;;10.60;10.00;;;;;34.30;25.58;98821.06;6235515;28;97459;-61
2021/10/04 14:00:10;;;;;;;;;14.40;11.40;;;;;34.32;26.19;98818.66;6235702;28;96819;-62
2021/10/04 14:03:17;;;;;;;;;14.00;13.00;;;;;34.33;25.94;98822.28;6226208;28;97538;-63
2021/10/04 14:06:21;;;;;;;;;14.80;14.00;;;;;34.35;26.07;98822.72;6210815;28;97850;-64
2021/10/04 14:09:26;;;;;;;;;15.00;14.50;;;;;34.29;26.21;98822.25;6212306;28;97026;-62